Time;durP1;ratioP1;P1;durP2;ratioP2;P2;SDS_P1;SDS_P2;PMS_P1;PMS_P2;Temp;Humidity;BMP_temperature;BMP_pressure;BME280_temperature;BME280_humidity;BME280_pressure;Samples;Min_cycle;Max_cycle;Signal;HPM_P1;HPM_P2
2021/06/17 00:00:44;;;;;;;10.52;6.78;;;22.80;99.90;;;;;;6211942;23;20028;-86
2021/06/17 00:03:11;;;;;;;11.18;6.38;;;22.80;99.90;;;;;;6210319;23;20021;-85
2021/06/17 00:05:38;;;;;;;9.93;6.80;;;22.90;99.90;;;;;;6207063;23;20025;-84
2021/06/17 00:08:06;;;;;;;10.05;6.30;;;22.80;99.90;;;;;;6208989;23;20022;-86
2021/06/17 00:10:35;;;;;;;11.57;7.25;;;22.80;99.90;;;;;;6212789;23;20024;-86
2021/06/17 00:13:04;;;;;;;9.77;6.88;;;22.80;99.90;;;;;;6210539;23;20074;-84
2021/06/17 00:15:34;;;;;;;10.48;6.82;;;22.80;99.90;;;;;;6210942;23;20021;-86
2021/06/17 00:18:01;;;;;;;9.32;6.55;;;22.80;99.90;;;;;;6212239;23;20099;-85
2021/06/17 00:20:29;;;;;;;10.73;6.43;;;23.40;99.90;;;;;;6214132;23;20088;-86
2021/06/17 00:22:57;;;;;;;9.05;5.88;;;22.70;99.90;;;;;;6213174;23;20409;-84
2021/06/17 00:25:24;;;;;;;10.80;6.57;;;22.70;99.90;;;;;;6223638;23;20074;-85
2021/06/17 00:27:51;;;;;;;10.32;6.40;;;24.30;99.90;;;;;;6211717;23;20179;-85
2021/06/17 00:30:19;;;;;;;9.27;6.47;;;23.00;99.90;;;;;;6209180;23;20024;-86
2021/06/17 00:32:48;;;;;;;8.85;6.43;;;22.60;99.90;;;;;;6211907;23;20682;-84
2021/06/17 00:35:15;;;;;;;10.45;6.32;;;22.60;99.90;;;;;;6211706;23;20092;-84
2021/06/17 00:37:43;;;;;;;8.50;6.18;;;22.50;99.90;;;;;;6212677;23;20024;-86
2021/06/17 00:40:13;;;;;;;9.15;6.15;;;22.50;99.90;;;;;;6210967;23;20029;-86
2021/06/17 00:42:41;;;;;;;9.73;6.20;;;22.60;99.90;;;;;;6211977;23;20462;-85
2021/06/17 00:45:11;;;;;;;10.00;6.35;;;22.60;99.90;;;;;;6211176;23;20070;-85
2021/06/17 00:47:39;;;;;;;9.82;6.75;;;22.60;99.90;;;;;;6212178;23;20358;-86
2021/06/17 00:50:09;;;;;;;13.32;7.10;;;22.50;99.90;;;;;;6210568;23;20024;-85
2021/06/17 00:52:37;;;;;;;7.63;6.30;;;22.50;99.90;;;;;;6212009;23;20447;-86
2021/06/17 00:55:05;;;;;;;8.52;6.22;;;22.50;99.90;;;;;;6213031;23;20070;-84
2021/06/17 00:57:32;;;;;;;9.25;6.30;;;22.40;99.90;;;;;;6210216;23;20020;-85
2021/06/17 00:59:59;;;;;;;9.23;6.40;;;22.40;99.90;;;;;;6211858;23;20028;-82
2021/06/17 01:02:25;;;;;;;12.88;6.78;;;22.30;99.90;;;;;;6211331;23;20032;-83
2021/06/17 01:04:52;;;;;;;8.63;6.45;;;22.30;99.90;;;;;;6212033;23;20028;-86
2021/06/17 01:07:33;;;;;;;10.68;7.20;;;22.30;99.90;;;;;;6213020;23;20016;-82
2021/06/17 01:10:08;;;;;;;8.50;6.80;;;22.20;99.90;;;;;;6212399;23;20086;-85
2021/06/17 01:12:47;;;;;;;9.30;6.55;;;22.10;99.90;;;;;;6211754;23;20082;-84
2021/06/17 01:15:18;;;;;;;10.88;6.60;;;23.20;99.90;;;;;;6211401;23;20135;-84
2021/06/17 01:17:51;;;;;;;9.00;6.93;;;22.00;99.90;;;;;;6212889;23;20078;-85
2021/06/17 01:20:25;;;;;;;9.93;6.93;;;21.90;99.90;;;;;;6211616;23;20082;-85
2021/06/17 01:23:08;;;;;;;11.23;6.90;;;21.80;99.90;;;;;;6211604;23;20051;-84
2021/06/17 01:25:54;;;;;;;12.40;8.10;;;21.80;99.90;;;;;;6215985;23;20016;-85
2021/06/17 01:28:27;;;;;;;12.57;7.75;;;21.60;99.90;;;;;;6215589;23;20032;-84
2021/06/17 01:30:57;;;;;;;11.88;7.75;;;21.50;99.90;;;;;;6211863;23;20025;-86
2021/06/17 01:36:04;;;;;;;10.40;7.20;;;21.40;99.90;;;;;;6124783;23;20080;-82
2021/06/17 01:38:31;;;;;;;;;;;21.30;99.90;;;;;;6099051;23;20452;-82
2021/06/17 01:40:59;;;;;;;9.13;6.63;;;21.30;99.90;;;;;;6123342;23;19917;-82
2021/06/17 01:43:29;;;;;;;11.02;7.35;;;21.30;99.90;;;;;;6099840;23;20018;-82
2021/06/17 01:45:58;;;;;;;9.82;7.20;;;21.30;99.90;;;;;;6125448;23;20078;-82
2021/06/17 01:48:27;;;;;;;10.02;7.78;;;21.20;99.90;;;;;;6100657;23;20029;-82
2021/06/17 01:50:56;;;;;;;9.73;7.20;;;21.20;99.90;;;;;;6099526;23;20025;-82
2021/06/17 01:53:24;;;;;;;9.43;7.28;;;21.10;99.90;;;;;;6111007;23;20024;-82
2021/06/17 01:55:56;;;;;;;11.05;7.28;;;21.10;99.90;;;;;;6136092;23;20456;-82
2021/06/17 01:58:25;;;;;;;14.98;7.93;;;21.00;99.90;;;;;;6101254;23;20022;-81
2021/06/17 02:00:55;;;;;;;10.60;6.88;;;20.90;99.90;;;;;;6124625;23;20013;-82
2021/06/17 02:03:23;;;;;;;11.82;7.70;;;20.90;99.90;;;;;;6099762;23;20019;-82
2021/06/17 02:05:51;;;;;;;11.27;7.68;;;21.00;99.90;;;;;;6126964;23;20018;-82
2021/06/17 02:08:20;;;;;;;11.38;7.32;;;20.90;99.90;;;;;;6100809;23;20018;-82
2021/06/17 02:10:49;;;;;;;11.55;7.22;;;20.80;99.90;;;;;;6101497;23;20025;-82
2021/06/17 02:13:17;;;;;;;10.57;8.15;;;20.80;99.90;;;;;;6109332;23;20447;-83
2021/06/17 02:15:46;;;;;;;10.40;7.25;;;20.80;99.90;;;;;;6098725;23;20018;-82
2021/06/17 02:18:15;;;;;;;10.68;7.88;;;20.70;99.90;;;;;;6100182;23;20444;-82
2021/06/17 02:20:42;;;;;;;10.52;7.75;;;20.70;99.90;;;;;;6100495;23;20444;-82
2021/06/17 02:23:12;;;;;;;11.57;8.02;;;20.70;99.90;;;;;;6124578;23;20606;-82
2021/06/17 02:25:41;;;;;;;12.43;7.75;;;20.60;99.90;;;;;;6125322;23;20026;-81
2021/06/17 02:28:12;;;;;;;11.77;8.02;;;20.60;99.90;;;;;;6125892;23;20022;-82
2021/06/17 02:30:41;;;;;;;10.55;7.57;;;20.50;99.90;;;;;;6098803;23;20443;-82
2021/06/17 02:33:11;;;;;;;11.63;7.78;;;20.40;99.90;;;;;;6100442;23;20014;-82
2021/06/17 02:35:43;;;;;;;12.80;8.20;;;20.50;99.90;;;;;;6118915;23;20078;-82
2021/06/17 02:38:13;;;;;;;11.90;7.68;;;20.40;99.90;;;;;;6123538;23;20065;-82
2021/06/17 02:40:42;;;;;;;9.55;7.72;;;20.40;99.90;;;;;;6145148;23;20326;-82
2021/06/17 02:43:14;;;;;;;9.52;7.68;;;20.40;99.90;;;;;;6147260;23;20072;-82
2021/06/17 02:45:42;;;;;;;11.07;8.45;;;20.40;99.90;;;;;;6120752;23;20077;-82
2021/06/17 02:48:10;;;;;;;13.18;8.32;;;20.40;99.90;;;;;;6123940;23;20018;-82
2021/06/17 02:50:40;;;;;;;12.65;7.88;;;20.40;99.90;;;;;;6121375;23;20014;-82
2021/06/17 02:53:07;;;;;;;11.35;8.88;;;20.30;99.90;;;;;;6124338;23;20495;-81
2021/06/17 02:55:34;;;;;;;11.73;8.27;;;20.30;99.90;;;;;;6123722;23;20018;-82
2021/06/17 02:58:30;;;;;;;12.15;8.55;;;20.20;99.90;;;;;;6122618;23;20018;-82
2021/06/17 03:01:02;;;;;;;11.77;8.25;;;20.20;99.90;;;;;;6108831;23;20033;-82
2021/06/17 03:03:36;;;;;;;13.68;8.70;;;20.20;99.90;;;;;;6147848;23;20352;-82
2021/06/17 03:06:08;;;;;;;10.45;8.10;;;20.10;99.90;;;;;;6123164;23;20014;-82
2021/06/17 03:08:38;;;;;;;10.65;7.82;;;20.10;99.90;;;;;;6122558;23;20026;-82
2021/06/17 03:11:11;;;;;;;13.48;8.82;;;20.10;99.90;;;;;;6119849;23;20514;-82
2021/06/17 03:13:43;;;;;;;12.98;8.38;;;20.10;99.90;;;;;;6123102;23;20010;-82
2021/06/17 03:16:16;;;;;;;13.30;9.05;;;20.10;99.90;;;;;;6144876;23;20037;-82
2021/06/17 03:18:44;;;;;;;10.13;8.23;;;20.10;99.90;;;;;;6146948;23;20101;-82
2021/06/17 03:21:14;;;;;;;13.05;8.05;;;20.10;99.90;;;;;;6130773;23;20118;-81
2021/06/17 03:23:43;;;;;;;11.00;8.23;;;20.10;99.90;;;;;;6123435;23;20076;-82
2021/06/17 03:26:13;;;;;;;11.13;8.43;;;20.20;99.90;;;;;;6122376;23;20050;-82
2021/06/17 03:28:42;;;;;;;10.55;7.68;;;20.20;99.90;;;;;;6124444;23;20072;-82
2021/06/17 03:31:13;;;;;;;12.13;8.48;;;20.20;99.90;;;;;;6120945;23;20065;-82
2021/06/17 03:33:41;;;;;;;10.05;8.27;;;20.20;99.90;;;;;;6123271;23;20336;-82
2021/06/17 03:36:10;;;;;;;12.45;8.60;;;20.20;99.90;;;;;;6122084;23;20518;-81
2021/06/17 03:38:41;;;;;;;11.80;8.27;;;20.20;99.90;;;;;;6120759;23;20321;-82
2021/06/17 03:41:10;;;;;;;12.90;8.50;;;20.20;99.90;;;;;;6121073;23;20018;-82
2021/06/17 03:43:38;;;;;;;9.93;8.03;;;20.20;99.90;;;;;;6124025;23;20081;-82
2021/06/17 03:46:06;;;;;;;11.38;8.40;;;20.20;99.90;;;;;;6123084;23;20081;-82
2021/06/17 03:48:34;;;;;;;12.30;8.10;;;20.20;99.90;;;;;;6121720;23;20025;-82
2021/06/17 03:51:01;;;;;;;13.43;9.18;;;20.10;99.90;;;;;;6123447;23;20018;-82
2021/06/17 03:53:29;;;;;;;13.57;8.52;;;20.10;99.90;;;;;;6121749;23;20014;-82
2021/06/17 03:55:58;;;;;;;10.73;8.20;;;20.10;99.90;;;;;;6123072;23;20025;-82
2021/06/17 03:58:26;;;;;;;10.32;8.07;;;20.10;99.90;;;;;;6121256;23;20610;-81
2021/06/17 04:00:55;;;;;;;10.77;8.60;;;20.00;99.90;;;;;;6119185;23;20409;-81
2021/06/17 04:03:25;;;;;;;11.38;8.23;;;20.00;99.90;;;;;;6121521;23;20017;-82
2021/06/17 04:05:54;;;;;;;12.82;9.18;;;20.10;99.90;;;;;;6144594;23;20450;-82
2021/06/17 04:08:26;;;;;;;16.27;9.90;;;20.10;99.90;;;;;;6121855;23;20069;-82
2021/06/17 04:10:57;;;;;;;15.13;10.07;;;20.00;99.90;;;;;;6124967;23;20321;-82
2021/06/17 04:13:27;;;;;;;14.95;9.35;;;20.00;99.90;;;;;;6123100;23;20018;-83
2021/06/17 04:15:55;;;;;;;15.02;10.65;;;20.00;99.90;;;;;;6120959;23;20018;-82
2021/06/17 04:18:24;;;;;;;11.75;9.90;;;19.90;99.90;;;;;;6124886;23;20045;-84
2021/06/17 04:20:54;;;;;;;15.25;10.05;;;19.90;99.90;;;;;;6124067;23;20018;-82
2021/06/17 04:23:22;;;;;;;12.25;10.02;;;19.90;99.90;;;;;;6123925;23;20372;-82
2021/06/17 04:25:51;;;;;;;13.50;10.10;;;20.00;99.90;;;;;;6122096;23;20034;-82
2021/06/17 04:28:20;;;;;;;12.35;9.88;;;20.00;99.90;;;;;;6124502;23;20085;-82
2021/06/17 04:30:50;;;;;;;14.63;9.85;;;20.00;99.90;;;;;;6124402;23;20017;-82
2021/06/17 04:33:20;;;;;;;15.90;10.23;;;20.00;99.90;;;;;;6123800;23;20310;-82
2021/06/17 04:35:54;;;;;;;13.05;10.20;;;20.10;99.90;;;;;;6134067;23;20452;-82
2021/06/17 04:38:22;;;;;;;13.20;9.68;;;20.10;99.90;;;;;;6121978;23;20018;-81
2021/06/17 04:40:50;;;;;;;13.43;9.63;;;20.20;99.90;;;;;;6143157;23;20022;-82
2021/06/17 04:43:22;;;;;;;13.32;9.55;;;20.30;99.90;;;;;;6121823;23;20017;-82
2021/06/17 04:45:52;;;;;;;11.98;8.93;;;20.30;99.90;;;;;;6123686;23;20018;-82
2021/06/17 04:48:22;;;;;;;12.30;8.98;;;20.40;99.90;;;;;;6125829;23;20029;-82
2021/06/17 04:50:49;;;;;;;14.82;8.32;;;20.40;99.90;;;;;;6124108;23;20014;-82
2021/06/17 04:53:17;;;;;;;13.88;9.05;;;20.50;99.90;;;;;;6123699;23;20026;-81
2021/06/17 04:55:46;;;;;;;12.05;8.13;;;20.50;99.90;;;;;;6125804;23;20395;-83
2021/06/17 04:58:13;;;;;;;;;;;20.60;99.90;;;;;;6123665;23;20018;-82
2021/06/17 05:00:40;;;;;;;11.07;8.52;;;20.60;99.90;;;;;;6147907;23;19983;-83
2021/06/17 05:03:09;;;;;;;12.98;8.32;;;20.70;99.90;;;;;;6121522;23;20026;-82
2021/06/17 05:05:35;;;;;;;13.55;8.15;;;20.70;99.90;;;;;;6123752;23;20017;-82
2021/06/17 05:10:48;;;;;;;11.77;7.90;;;20.80;99.90;;;;;;6123695;23;20017;-82
2021/06/17 05:13:17;;;;;;;12.02;8.32;;;20.90;99.90;;;;;;6122964;23;20018;-82
2021/06/17 05:15:44;;;;;;;11.88;7.55;;;20.90;99.90;;;;;;6121047;23;20014;-82
2021/06/17 05:18:12;;;;;;;10.85;7.95;;;21.00;99.90;;;;;;6124070;23;20025;-82
2021/06/17 05:20:39;;;;;;;11.30;7.78;;;21.10;99.90;;;;;;6122611;23;20467;-82
2021/06/17 05:23:06;;;;;;;11.52;7.93;;;21.20;99.90;;;;;;6123298;23;20033;-81
2021/06/17 05:25:33;;;;;;;10.90;7.68;;;21.30;99.90;;;;;;6123248;23;20022;-82
2021/06/17 05:28:00;;;;;;;10.77;7.45;;;21.30;99.90;;;;;;6122606;23;20102;-82
2021/06/17 05:30:27;;;;;;;9.60;7.72;;;21.30;99.90;;;;;;6146528;23;20384;-82
2021/06/17 05:32:54;;;;;;;10.93;7.95;;;21.30;99.90;;;;;;6134712;23;20076;-82
2021/06/17 05:35:22;;;;;;;12.18;7.90;;;21.40;99.90;;;;;;6121755;23;20017;-82
2021/06/17 05:37:50;;;;;;;9.73;7.85;;;21.60;99.90;;;;;;6122624;23;20026;-82
2021/06/17 05:40:17;;;;;;;9.90;7.45;;;21.60;99.90;;;;;;6123483;23;20459;-82
2021/06/17 05:42:44;;;;;;;11.85;8.10;;;21.60;99.90;;;;;;6123299;23;20022;-82
2021/06/17 05:45:12;;;;;;;12.73;7.45;;;21.80;99.90;;;;;;6122583;23;20022;-82
2021/06/17 05:47:39;;;;;;;9.05;7.00;;;21.90;99.90;;;;;;6122368;23;20227;-82
2021/06/17 05:50:07;;;;;;;11.32;7.13;;;21.90;99.90;;;;;;6132697;23;20022;-81
2021/06/17 05:52:35;;;;;;;8.85;6.95;;;21.90;99.90;;;;;;6123720;23;20049;-82
2021/06/17 05:55:03;;;;;;;9.55;7.03;;;22.00;99.90;;;;;;6122877;23;20384;-82
2021/06/17 05:57:30;;;;;;;9.10;7.20;;;22.10;99.90;;;;;;6123074;23;20092;-82
2021/06/17 05:59:57;;;;;;;11.18;7.32;;;22.10;99.90;;;;;;6123708;23;20026;-82
2021/06/17 06:02:24;;;;;;;8.93;6.95;;;22.20;99.90;;;;;;6147824;23;20046;-82
2021/06/17 06:04:52;;;;;;;10.13;6.63;;;22.20;99.90;;;;;;6124635;23;20014;-83
2021/06/17 06:07:19;;;;;;;11.77;7.38;;;22.30;99.90;;;;;;6122916;23;20021;-82
2021/06/17 06:09:47;;;;;;;9.60;6.68;;;22.40;99.90;;;;;;6130142;23;20022;-82
2021/06/17 06:12:14;;;;;;;8.48;6.78;;;22.50;99.90;;;;;;6122509;23;20022;-82
2021/06/17 06:14:41;;;;;;;9.57;6.75;;;22.50;99.90;;;;;;6124420;23;20036;-83
2021/06/17 06:17:08;;;;;;;9.13;6.80;;;22.60;99.90;;;;;;6124824;23;20089;-82
2021/06/17 06:19:36;;;;;;;9.55;6.15;;;22.60;99.90;;;;;;6133719;23;20566;-82
2021/06/17 06:22:04;;;;;;;9.43;6.78;;;22.70;99.90;;;;;;6122184;23;20014;-82
2021/06/17 06:24:32;;;;;;;10.07;5.80;;;22.80;99.90;;;;;;6124624;23;20018;-81
2021/06/17 06:27:01;;;;;;;7.57;5.75;;;22.90;99.90;;;;;;6124761;23;20018;-82
2021/06/17 06:29:28;;;;;;;7.68;5.53;;;23.10;99.90;;;;;;6121624;23;20444;-81
2021/06/17 06:31:55;;;;;;;7.88;5.45;;;23.20;99.90;;;;;;6119860;23;20022;-81
2021/06/17 06:34:23;;;;;;;7.55;5.15;;;23.30;99.90;;;;;;6104828;23;20069;-83
2021/06/17 06:36:50;;;;;;;11.70;5.22;;;23.40;99.90;;;;;;6122164;23;20041;-81
2021/06/17 06:39:17;;;;;;;7.40;4.88;;;23.40;99.90;;;;;;6121874;23;20018;-83
2021/06/17 06:41:45;;;;;;;8.18;5.30;;;23.40;99.90;;;;;;6120979;23;20081;-82
2021/06/17 06:44:13;;;;;;;7.10;4.95;;;23.50;99.90;;;;;;6123211;23;20069;-82
2021/06/17 06:46:41;;;;;;;6.72;4.75;;;23.60;99.90;;;;;;6146314;23;20078;-83
2021/06/17 06:49:09;;;;;;;6.63;4.68;;;23.70;99.90;;;;;;6122359;23;20077;-82
2021/06/17 06:51:38;;;;;;;9.07;4.90;;;23.80;99.90;;;;;;6123427;23;20021;-83
2021/06/17 06:54:05;;;;;;;9.95;5.50;;;23.90;99.90;;;;;;6120270;23;20018;-82
2021/06/17 06:56:32;;;;;;;8.13;5.22;;;24.00;99.90;;;;;;6123223;23;20022;-82
2021/06/17 06:58:59;;;;;;;9.32;4.90;;;24.10;99.90;;;;;;6122975;23;20018;-82
2021/06/17 07:01:27;;;;;;;6.07;4.75;;;24.20;99.90;;;;;;6124215;23;20018;-82
2021/06/17 07:03:54;;;;;;;8.00;4.78;;;24.20;99.90;;;;;;6121781;23;20018;-82
2021/06/17 07:06:21;;;;;;;7.07;4.70;;;24.20;99.90;;;;;;6122416;23;20028;-82
2021/06/17 07:08:48;;;;;;;6.90;4.75;;;24.30;99.90;;;;;;6122422;23;20474;-82
2021/06/17 07:11:15;;;;;;;7.75;4.60;;;25.40;99.90;;;;;;6123624;23;20018;-82
2021/06/17 07:13:41;;;;;;;9.40;4.60;;;24.40;99.90;;;;;;6122010;23;20089;-83
2021/06/17 07:16:08;;;;;;;7.63;3.80;;;24.50;99.90;;;;;;6122791;23;20084;-82
2021/06/17 07:18:37;;;;;;;8.15;3.90;;;24.60;99.90;;;;;;6123677;23;20026;-82
2021/06/17 07:21:04;;;;;;;6.82;4.22;;;24.60;99.90;;;;;;6124277;23;20025;-82
2021/06/17 07:23:33;;;;;;;8.75;4.43;;;24.70;99.90;;;;;;6121560;23;20329;-82
2021/06/17 07:26:01;;;;;;;9.13;4.43;;;24.80;99.90;;;;;;6122342;23;20360;-81
2021/06/17 07:28:29;;;;;;;6.75;4.30;;;24.80;99.90;;;;;;6121133;23;20069;-82
2021/06/17 07:30:56;;;;;;;7.88;4.00;;;25.10;99.90;;;;;;6121853;23;20013;-82
2021/06/17 07:33:28;;;;;;;7.88;4.07;;;25.00;99.90;;;;;;6130337;23;20026;-81
2021/06/17 07:35:56;;;;;;;6.72;4.15;;;25.10;99.90;;;;;;6122262;23;20018;-82
2021/06/17 07:38:23;;;;;;;5.47;4.13;;;25.10;99.90;;;;;;6121770;23;20013;-83
2021/06/17 07:40:50;;;;;;;10.05;4.55;;;25.10;99.90;;;;;;6122304;23;20026;-83
2021/06/17 07:43:16;;;;;;;7.68;4.60;;;25.20;99.90;;;;;;6121841;23;20113;-84
2021/06/17 07:45:43;;;;;;;6.68;4.03;;;25.30;99.90;;;;;;6120331;23;20049;-82
2021/06/17 07:48:11;;;;;;;6.32;4.05;;;25.30;99.90;;;;;;6125898;23;20022;-84
2021/06/17 07:50:39;;;;;;;7.18;4.03;;;25.40;99.90;;;;;;6126943;23;20014;-84
2021/06/17 07:53:07;;;;;;;6.50;4.32;;;25.50;99.90;;;;;;6125181;23;20022;-86
2021/06/17 07:55:35;;;;;;;7.05;4.30;;;25.60;99.90;;;;;;6123382;23;20025;-84
2021/06/17 07:58:02;;;;;;;8.40;4.72;;;25.70;99.90;;;;;;6123088;23;20053;-84
2021/06/17 08:00:30;;;;;;;6.60;4.65;;;25.70;99.90;;;;;;6122779;23;20452;-85
2021/06/17 08:02:57;;;;;;;7.97;4.30;;;25.80;99.90;;;;;;6121301;23;20018;-87
2021/06/17 08:05:25;;;;;;;7.35;4.35;;;26.80;99.90;;;;;;6121466;23;20519;-83
2021/06/17 08:07:52;;;;;;;7.70;4.38;;;26.00;99.90;;;;;;6121913;23;20072;-84
2021/06/17 08:10:21;;;;;;;9.52;4.53;;;26.30;99.90;;;;;;6121589;23;20014;-82
2021/06/17 08:12:47;;;;;;;7.25;4.43;;;26.10;99.90;;;;;;6121012;23;20022;-85
2021/06/17 08:15:15;;;;;;;7.10;4.32;;;26.20;99.90;;;;;;6144702;23;20018;-87
2021/06/17 08:17:43;;;;;;;7.28;4.25;;;26.20;99.90;;;;;;6121540;23;20029;-84
2021/06/17 08:20:12;;;;;;;6.38;4.50;;;26.20;99.90;;;;;;6130953;23;20052;-82
2021/06/17 08:22:40;;;;;;;7.25;4.45;;;26.20;99.90;;;;;;6121861;23;20033;-87
2021/06/17 08:25:10;;;;;;;5.82;4.78;;;26.30;99.90;;;;;;6121188;23;20017;-83
2021/06/17 08:27:39;;;;;;;7.35;4.53;;;26.40;99.90;;;;;;6121642;23;20045;-83
2021/06/17 08:30:08;;;;;;;9.27;4.33;;;26.50;99.90;;;;;;6145866;23;20076;-83
2021/06/17 08:32:35;;;;;;;6.72;4.80;;;26.60;99.90;;;;;;6121918;23;20297;-84
2021/06/17 08:35:02;;;;;;;7.60;4.45;;;26.70;99.90;;;;;;6122582;23;20021;-84
2021/06/17 08:37:30;;;;;;;7.07;4.70;;;26.70;99.90;;;;;;6121821;23;20026;-86
2021/06/17 08:39:58;;;;;;;7.53;4.40;;;26.70;99.90;;;;;;6120496;23;20018;-83
2021/06/17 08:42:26;;;;;;;7.22;4.20;;;26.90;99.90;;;;;;6120721;23;20017;-85
2021/06/17 08:44:55;;;;;;;6.80;4.20;;;26.80;99.90;;;;;;6120364;23;20478;-83
2021/06/17 08:47:23;;;;;;;6.10;4.18;;;26.90;99.90;;;;;;6131977;23;20018;-84
2021/06/17 08:49:52;;;;;;;6.68;4.07;;;27.00;99.90;;;;;;6121563;23;20017;-87
2021/06/17 08:52:20;;;;;;;8.23;4.60;;;27.00;99.90;;;;;;6120910;23;20068;-84
2021/06/17 08:54:47;;;;;;;6.53;4.47;;;27.00;99.90;;;;;;6121441;23;20393;-85
2021/06/17 08:57:14;;;;;;;5.53;4.15;;;27.10;99.90;;;;;;6132902;23;20014;-85
2021/06/17 08:59:44;;;;;;;6.13;4.13;;;28.00;99.90;;;;;;6122010;23;20022;-84
2021/06/17 09:02:12;;;;;;;9.63;4.15;;;27.30;99.80;;;;;;6121249;23;20017;-82
2021/06/17 09:04:39;;;;;;;7.32;4.28;;;27.30;99.90;;;;;;6122975;23;20045;-84
2021/06/17 09:07:08;;;;;;;5.72;3.70;;;27.40;99.40;;;;;;6123399;23;20028;-84
2021/06/17 09:09:38;;;;;;;6.60;3.80;;;27.40;99.10;;;;;;6117366;23;20321;-83
2021/06/17 09:12:07;;;;;;;7.80;3.20;;;27.60;98.60;;;;;;6122083;23;20026;-89
2021/06/17 09:14:34;;;;;;;;;;;27.60;98.60;;;;;;6123333;23;20029;-82
2021/06/17 09:17:04;;;;;;;4.18;2.97;;;27.70;97.60;;;;;;6123583;23;19917;-83
2021/06/17 09:19:41;;;;;;;5.80;3.70;;;27.70;97.20;;;;;;6145793;23;20021;-83
2021/06/17 09:22:10;;;;;;;6.53;3.25;;;27.70;97.30;;;;;;6145576;23;20030;-83
2021/06/17 09:24:39;;;;;;;6.78;3.70;;;27.80;96.30;;;;;;6121029;23;20076;-83
2021/06/17 09:27:24;;;;;;;6.95;3.55;;;27.80;96.90;;;;;;6123174;23;20025;-85
2021/06/17 09:29:54;;;;;;;5.57;3.67;;;27.80;97.10;;;;;;6121874;23;20022;-84
2021/06/17 09:32:22;;;;;;;5.10;3.75;;;28.80;97.80;;;;;;6121787;23;20452;-85
2021/06/17 09:34:52;;;;;;;7.10;3.65;;;28.60;97.20;;;;;;6121089;23;20014;-84
2021/06/17 09:37:30;;;;;;;6.65;4.03;;;27.90;96.60;;;;;;6122007;23;20014;-84
2021/06/17 09:39:57;;;;;;;6.60;3.85;;;28.10;97.30;;;;;;6123114;23;20018;-84
2021/06/17 09:42:29;;;;;;;5.13;3.42;;;28.10;95.20;;;;;;6122473;23;20440;-82
2021/06/17 09:44:58;;;;;;;6.40;3.28;;;28.10;96.70;;;;;;6130985;23;20041;-84
2021/06/17 09:47:31;;;;;;;7.90;3.55;;;28.10;95.40;;;;;;6123869;23;20123;-82
2021/06/17 09:50:05;;;;;;;5.55;3.33;;;28.10;95.30;;;;;;6134130;23;20022;-84
2021/06/17 09:52:39;;;;;;;4.93;3.25;;;28.20;94.70;;;;;;6133788;23;20069;-86
2021/06/17 09:55:07;;;;;;;6.10;3.60;;;28.20;96.00;;;;;;6123224;23;20014;-85
2021/06/17 09:57:37;;;;;;;8.70;3.55;;;28.40;96.10;;;;;;6133800;23;20014;-83
2021/06/17 10:00:09;;;;;;;5.38;3.67;;;28.30;95.50;;;;;;6123045;23;20018;-84
2021/06/17 10:02:38;;;;;;;9.00;3.40;;;28.40;96.80;;;;;;6123021;23;20014;-82
2021/06/17 10:05:14;;;;;;;7.30;3.70;;;28.50;96.40;;;;;;6122619;23;20022;-84
2021/06/17 10:07:43;;;;;;;6.13;3.22;;;28.60;95.70;;;;;;6123671;23;20032;-85
2021/06/17 10:10:12;;;;;;;5.43;3.25;;;28.70;95.00;;;;;;6124806;23;20018;-83
2021/06/17 10:12:40;;;;;;;5.60;3.33;;;28.70;94.50;;;;;;6124876;23;20025;-84
2021/06/17 10:15:08;;;;;;;7.97;3.53;;;28.80;93.10;;;;;;6122769;23;20113;-82
2021/06/17 10:17:36;;;;;;;6.97;3.20;;;28.70;94.40;;;;;;6122095;23;20025;-84
2021/06/17 10:20:06;;;;;;;9.52;3.40;;;28.80;95.60;;;;;;6123517;23;20101;-86
2021/06/17 10:22:39;;;;;;;5.47;3.35;;;28.90;94.90;;;;;;6133115;23;20069;-86
2021/06/17 10:25:09;;;;;;;6.60;3.35;;;29.00;95.60;;;;;;6122427;23;20029;-87
2021/06/17 10:27:40;;;;;;;5.28;3.03;;;29.00;95.70;;;;;;6122994;23;20084;-86
2021/06/17 10:30:09;;;;;;;6.82;3.20;;;29.10;95.90;;;;;;6124553;23;20026;-83
2021/06/17 10:32:37;;;;;;;;;;;29.20;93.40;;;;;;6123683;23;20468;-84
2021/06/17 10:35:05;;;;;;;7.55;3.00;;;29.30;94.60;;;;;;6143059;23;19917;-83
2021/06/17 10:37:47;;;;;;;4.83;3.23;;;29.30;95.30;;;;;;6121940;23;20142;-86
2021/06/17 10:40:18;;;;;;;8.55;3.10;;;29.40;94.30;;;;;;6147151;23;20334;-85
2021/06/17 10:42:47;;;;;;;4.82;3.10;;;29.50;94.60;;;;;;6124065;23;20026;-82
2021/06/17 10:45:33;;;;;;;5.72;3.17;;;29.80;93.30;;;;;;6122293;23;20089;-84
2021/06/17 10:48:01;;;;;;;4.32;3.08;;;30.20;94.30;;;;;;6121653;23;20514;-82
2021/06/17 10:50:33;;;;;;;5.20;2.70;;;30.00;93.80;;;;;;6120770;23;20029;-83
2021/06/17 10:53:31;;;;;;;5.22;3.05;;;29.60;92.50;;;;;;6122980;23;20077;-83
2021/06/17 10:56:07;;;;;;;5.45;3.00;;;29.70;93.10;;;;;;6123188;23;20025;-83
2021/06/17 10:58:56;;;;;;;8.48;3.40;;;29.70;92.70;;;;;;6122557;23;20069;-86
2021/06/17 11:01:31;;;;;;;5.35;3.00;;;29.80;92.60;;;;;;6124372;23;20022;-84
2021/06/17 11:04:09;;;;;;;7.20;3.15;;;29.70;92.10;;;;;;6121013;23;20017;-85
2021/06/17 11:07:11;;;;;;;8.32;3.05;;;29.80;92.70;;;;;;6124137;23;20018;-87
2021/06/17 11:09:42;;;;;;;5.30;2.88;;;29.90;93.00;;;;;;6097987;23;20018;-83
2021/06/17 11:12:44;;;;;;;5.63;3.38;;;30.00;93.80;;;;;;6124340;23;20045;-82
2021/06/17 11:15:42;;;;;;;5.40;2.78;;;30.10;92.30;;;;;;6121928;23;20018;-84
2021/06/17 11:18:10;;;;;;;3.95;2.75;;;30.10;93.40;;;;;;6133717;23;20018;-86
2021/06/17 11:20:40;;;;;;;5.78;2.97;;;30.10;93.40;;;;;;6146928;23;20014;-81
2021/06/17 11:23:08;;;;;;;5.80;3.35;;;30.20;93.00;;;;;;6122758;23;20018;-82
2021/06/17 11:25:39;;;;;;;4.97;3.22;;;30.20;92.70;;;;;;6122040;23;20021;-84
2021/06/17 11:28:07;;;;;;;6.28;3.15;;;30.20;91.90;;;;;;6126040;23;20017;-83
2021/06/17 11:31:02;;;;;;;4.90;3.13;;;30.20;92.30;;;;;;6126678;23;20444;-83
2021/06/17 11:33:44;;;;;;;4.72;3.10;;;30.30;92.00;;;;;;6128035;23;20085;-84
2021/06/17 11:36:16;;;;;;;6.10;3.13;;;30.30;91.80;;;;;;6124962;23;20021;-84
2021/06/17 11:38:44;;;;;;;5.25;2.78;;;30.30;91.10;;;;;;6121992;23;20523;-84
2021/06/17 11:41:33;;;;;;;7.57;2.75;;;30.40;92.50;;;;;;6123774;23;20025;-85
2021/06/17 11:44:02;;;;;;;6.15;2.70;;;30.40;92.50;;;;;;6121260;23;20420;-83
2021/06/17 11:46:36;;;;;;;5.65;3.10;;;30.50;91.00;;;;;;6121623;23;20344;-84
2021/06/17 11:49:28;;;;;;;6.10;3.00;;;30.60;91.20;;;;;;6122308;23;20044;-83
2021/06/17 11:51:55;;;;;;;5.75;3.03;;;30.60;92.70;;;;;;6122776;23;20077;-85
2021/06/17 11:54:25;;;;;;;6.68;2.80;;;30.70;91.40;;;;;;6121929;23;20336;-83
2021/06/17 11:56:56;;;;;;;5.78;2.83;;;30.70;91.80;;;;;;6125733;23;20018;-85
2021/06/17 11:59:28;;;;;;;5.03;2.75;;;30.80;91.10;;;;;;6124372;23;20464;-87
2021/06/17 12:02:29;;;;;;;4.60;2.88;;;30.80;91.30;;;;;;6123772;23;20021;-84
2021/06/17 12:05:09;;;;;;;5.07;2.58;;;31.00;91.30;;;;;;6122080;23;20033;-86
2021/06/17 12:07:38;;;;;;;6.03;3.10;;;31.10;91.70;;;;;;6146549;23;20029;-84
2021/06/17 12:10:14;;;;;;;5.28;2.67;;;31.10;90.80;;;;;;6121138;23;20021;-83
2021/06/17 12:12:50;;;;;;;6.82;2.78;;;31.10;90.50;;;;;;6119342;23;20026;-84
2021/06/17 12:15:19;;;;;;;3.70;2.70;;;31.20;89.30;;;;;;6120336;23;20045;-82
2021/06/17 12:17:49;;;;;;;5.60;2.83;;;31.20;90.30;;;;;;6123929;23;20020;-83
2021/06/17 12:20:17;;;;;;;;;;;31.10;89.50;;;;;;6125131;23;20077;-85
2021/06/17 12:22:47;;;;;;;4.85;2.90;;;31.20;89.40;;;;;;6146041;23;19920;-82
2021/06/17 12:25:18;;;;;;;4.05;2.60;;;31.20;89.00;;;;;;6122461;23;20053;-84
2021/06/17 12:27:48;;;;;;;4.35;2.55;;;31.20;91.40;;;;;;6121394;23;20072;-84
2021/06/17 12:30:24;;;;;;;5.93;2.78;;;31.60;91.70;;;;;;6122713;23;20017;-85
2021/06/17 12:32:50;;;;;;;4.72;2.63;;;31.40;91.60;;;;;;6124936;23;20072;-82
2021/06/17 12:35:18;;;;;;;4.43;2.60;;;31.60;90.60;;;;;;6122904;23;20084;-84
2021/06/17 12:37:54;;;;;;;7.38;2.30;;;31.50;88.90;;;;;;6124062;23;20502;-83
2021/06/17 12:40:33;;;;;;;3.38;2.45;;;31.50;84.30;;;;;;6125814;23;20456;-84
2021/06/17 12:43:10;;;;;;;4.45;2.20;;;31.60;86.60;;;;;;6122740;23;20017;-84
2021/06/17 12:45:42;;;;;;;6.18;2.38;;;31.60;84.00;;;;;;6121349;23;20030;-83
2021/06/17 12:48:46;;;;;;;4.90;2.13;;;31.60;83.70;;;;;;6122996;23;20021;-87
2021/06/17 12:54:22;;;;;;;4.63;2.28;;;31.60;84.60;;;;;;6110563;23;20025;-83
2021/06/17 12:56:51;;;;;;;5.40;2.30;;;31.70;84.40;;;;;;6121851;23;20022;-84
2021/06/17 12:59:33;;;;;;;7.75;2.28;;;31.70;84.00;;;;;;6120092;23;20014;-81
2021/06/17 13:02:00;;;;;;;6.05;2.45;;;31.70;83.70;;;;;;6132970;23;20018;-81
2021/06/17 13:04:27;;;;;;;3.80;2.15;;;31.70;84.60;;;;;;6124858;23;20025;-84
2021/06/17 13:06:53;;;;;;;5.45;2.47;;;31.70;87.40;;;;;;6123481;23;20069;-83